createdAt,value
2022-12-20T00:01:13.417Z,23.77
2022-12-20T00:03:18.986Z,22.20
2022-12-20T00:05:24.113Z,24.20
2022-12-20T00:07:29.240Z,23.42
2022-12-20T00:09:34.559Z,23.60
2022-12-20T00:11:42.878Z,23.30
2022-12-20T00:13:50.001Z,24.20
2022-12-20T00:16:05.940Z,23.90
2022-12-20T00:18:13.792Z,23.33
2022-12-20T00:20:19.162Z,23.77
2022-12-20T00:22:24.358Z,23.48
2022-12-20T00:24:29.448Z,23.15
2022-12-20T00:26:38.078Z,24.17
2022-12-20T00:28:45.940Z,23.38
2022-12-20T00:33:02.249Z,23.67
2022-12-20T00:35:11.754Z,22.98
2022-12-20T00:37:17.732Z,25.50
2022-12-20T00:39:22.726Z,25.35
2022-12-20T00:41:30.639Z,23.30
2022-12-20T00:43:37.573Z,23.58
2022-12-20T00:45:42.933Z,22.80
2022-12-20T00:47:49.152Z,23.15
2022-12-20T00:49:54.167Z,24.05
2022-12-20T00:52:02.139Z,24.75
2022-12-20T00:54:08.064Z,24.30
2022-12-20T00:56:13.570Z,24.40
2022-12-20T00:58:18.903Z,23.83
2022-12-20T01:00:25.016Z,23.40
2022-12-20T01:02:30.182Z,25.35
2022-12-20T01:04:35.345Z,25.27
2022-12-20T01:06:40.780Z,24.85
2022-12-20T01:08:48.879Z,25.67
2022-12-20T01:11:03.196Z,24.40
2022-12-20T01:13:08.197Z,25.27
2022-12-20T01:15:15.841Z,25.20
2022-12-20T01:17:21.572Z,25.38
2022-12-20T01:19:26.564Z,25.23
2022-12-20T01:21:33.911Z,24.10
2022-12-20T01:23:39.569Z,23.52
2022-12-20T01:25:47.891Z,24.52
2022-12-20T01:27:52.921Z,25.10
2022-12-20T01:29:58.088Z,24.95
2022-12-20T01:32:03.915Z,24.50
2022-12-20T01:34:09.498Z,23.17
2022-12-20T01:36:17.613Z,23.50
2022-12-20T01:38:22.575Z,24.20
2022-12-20T01:40:27.709Z,24.45
2022-12-20T01:42:35.646Z,24.50
2022-12-20T01:47:02.553Z,23.52
2022-12-20T01:49:13.812Z,23.38
2022-12-20T01:51:19.517Z,25.42
2022-12-20T01:53:28.099Z,24.15
2022-12-20T01:55:35.661Z,23.73
2022-12-20T01:57:49.883Z,23.52
2022-12-20T01:59:56.899Z,23.52
2022-12-20T02:02:05.635Z,23.48
2022-12-20T02:04:10.871Z,23.83
2022-12-20T02:06:22.052Z,24.42
2022-12-20T02:08:27.865Z,24.60
2022-12-20T02:10:47.674Z,23.75
2022-12-20T02:13:09.916Z,23.52
2022-12-20T02:15:42.974Z,24.80
2022-12-20T02:18:00.143Z,22.80
2022-12-20T02:20:35.899Z,24.77
2022-12-20T02:23:01.926Z,22.73
2022-12-20T02:25:41.694Z,23.50
2022-12-20T02:28:03.856Z,23.95
2022-12-20T02:30:17.055Z,23.42
2022-12-20T02:32:29.535Z,22.98
2022-12-20T02:34:38.599Z,23.20
2022-12-20T02:36:44.176Z,23.25
2022-12-20T02:38:49.710Z,23.48
2022-12-20T02:41:01.172Z,23.60
2022-12-20T02:43:34.667Z,22.42
2022-12-20T02:45:39.880Z,22.83
2022-12-20T02:47:52.463Z,23.02
2022-12-20T02:49:59.908Z,22.52
2022-12-20T02:52:08.611Z,23.48
2022-12-20T02:54:14.227Z,22.63
2022-12-20T02:56:30.486Z,23.75
2022-12-20T02:58:43.144Z,23.33
2022-12-20T03:00:54.189Z,22.27
2022-12-20T03:03:12.479Z,22.40
2022-12-20T03:05:18.133Z,21.30
2022-12-20T03:07:24.481Z,22.35
2022-12-20T03:09:30.464Z,21.55
2022-12-20T03:11:35.833Z,22.27
2022-12-20T03:13:41.076Z,21.35
2022-12-20T03:15:50.296Z,23.35
2022-12-20T03:20:01.167Z,22.83
2022-12-20T03:22:06.160Z,22.92
2022-12-20T03:24:14.174Z,23.00
2022-12-20T03:26:19.297Z,23.70
2022-12-20T03:28:29.841Z,22.52
2022-12-20T03:30:36.286Z,23.83
2022-12-20T03:32:44.388Z,23.63
2022-12-20T03:34:50.685Z,23.52
2022-12-20T03:37:02.158Z,23.67
2022-12-20T03:39:07.398Z,23.10
2022-12-20T03:41:16.223Z,24.38
2022-12-20T03:43:21.143Z,24.35
2022-12-20T03:45:29.285Z,24.45
2022-12-20T03:47:35.011Z,22.95
2022-12-20T03:49:43.631Z,23.75
2022-12-20T03:51:49.911Z,22.38
2022-12-20T03:53:55.750Z,21.13
2022-12-20T03:56:06.993Z,22.20
2022-12-20T03:58:12.662Z,21.38
2022-12-20T04:00:20.636Z,22.17
2022-12-20T04:02:30.061Z,22.70
2022-12-20T04:04:35.553Z,23.45
2022-12-20T04:06:43.638Z,23.23
2022-12-20T04:08:49.598Z,24.13
2022-12-20T04:11:14.285Z,23.17
2022-12-20T04:13:23.503Z,21.52
2022-12-20T04:15:28.527Z,22.98
2022-12-20T04:17:34.793Z,22.52
2022-12-20T04:19:42.146Z,22.20
2022-12-20T04:21:49.947Z,23.45
2022-12-20T04:23:57.850Z,23.15
2022-12-20T04:26:10.479Z,22.40
2022-12-20T04:28:16.283Z,23.38
2022-12-20T04:30:21.775Z,22.52
2022-12-20T04:32:26.935Z,23.88
2022-12-20T04:34:32.051Z,23.15
2022-12-20T04:36:37.862Z,22.05
2022-12-20T04:38:50.021Z,23.27
2022-12-20T04:40:57.632Z,23.02
2022-12-20T04:43:04.381Z,23.05
2022-12-20T04:45:11.300Z,24.92
2022-12-20T04:47:16.315Z,23.27
2022-12-20T04:49:22.393Z,22.88
2022-12-20T04:51:27.584Z,22.70
2022-12-20T04:53:45.174Z,22.88
2022-12-20T04:58:03.622Z,21.70
2022-12-20T05:00:15.427Z,21.33
2022-12-20T05:02:24.064Z,22.08
2022-12-20T05:04:37.916Z,21.55
2022-12-20T05:06:43.526Z,22.70
2022-12-20T05:08:49.366Z,23.58
2022-12-20T05:10:57.627Z,23.70
2022-12-20T05:13:08.817Z,24.95
2022-12-20T05:15:19.416Z,24.02
2022-12-20T05:17:24.500Z,23.60
2022-12-20T05:19:31.724Z,25.80
2022-12-20T05:21:50.645Z,26.15
2022-12-20T05:24:08.219Z,24.67
2022-12-20T05:26:51.308Z,22.23
2022-12-20T05:28:57.608Z,22.02
2022-12-20T05:31:05.542Z,22.00
2022-12-20T05:33:13.982Z,22.88
2022-12-20T05:35:21.967Z,21.25
2022-12-20T05:37:32.792Z,22.90
2022-12-20T05:39:45.402Z,21.85
2022-12-20T05:41:59.099Z,21.50
2022-12-20T05:44:07.263Z,20.42
2022-12-20T05:46:15.486Z,24.08
2022-12-20T05:48:30.674Z,21.85
2022-12-20T05:50:36.393Z,23.20
2022-12-20T05:53:12.056Z,22.42
2022-12-20T05:55:24.554Z,25.15
2022-12-20T05:57:33.575Z,23.92
2022-12-20T05:59:38.859Z,26.00
2022-12-20T06:01:47.538Z,25.25
2022-12-20T06:03:53.613Z,26.52
2022-12-20T06:06:00.210Z,26.27
2022-12-20T06:08:11.083Z,23.23
2022-12-20T06:10:16.332Z,23.92
2022-12-20T06:12:34.993Z,22.00
2022-12-20T06:14:40.565Z,20.80
2022-12-20T06:16:45.659Z,23.42
2022-12-20T06:18:52.760Z,24.67
2022-12-20T06:20:58.046Z,24.10
2022-12-20T06:23:03.039Z,24.15
2022-12-20T06:25:15.628Z,23.58
2022-12-20T06:27:23.265Z,24.60
2022-12-20T06:29:40.884Z,24.50
2022-12-20T06:31:48.989Z,25.73
2022-12-20T06:33:55.036Z,29.95
2022-12-20T06:38:07.970Z,86.55
2022-12-20T06:40:16.759Z,63.85
2022-12-20T06:42:21.941Z,24.52
2022-12-20T06:44:27.564Z,23.17
2022-12-20T06:46:35.360Z,21.80
2022-12-20T06:50:53.744Z,21.25
2022-12-20T06:53:01.286Z,22.17
2022-12-20T06:55:07.762Z,24.55
2022-12-20T06:57:17.339Z,26.30
2022-12-20T06:59:26.033Z,26.55
2022-12-20T07:01:33.928Z,24.85
2022-12-20T07:03:38.954Z,23.27
2022-12-20T07:05:45.069Z,24.48
2022-12-20T07:07:50.202Z,24.00
2022-12-20T07:09:55.551Z,24.58
2022-12-20T07:12:00.662Z,25.80
2022-12-20T07:14:06.190Z,24.75
2022-12-20T07:16:11.468Z,22.58
2022-12-20T07:18:19.395Z,24.73
2022-12-20T07:20:24.947Z,22.77
2022-12-20T07:22:30.130Z,23.85
2022-12-20T07:24:35.075Z,25.00
2022-12-20T07:26:40.036Z,25.27
2022-12-20T07:28:45.735Z,24.95
2022-12-20T07:30:50.706Z,21.70
2022-12-20T07:32:55.750Z,23.88
2022-12-20T07:35:03.811Z,24.98
2022-12-20T07:37:08.792Z,28.63
2022-12-20T07:39:13.898Z,28.23
2022-12-20T07:41:20.744Z,27.15
2022-12-20T07:43:25.790Z,27.55
2022-12-20T07:45:31.133Z,28.15
2022-12-20T07:47:36.727Z,28.10
2022-12-20T07:49:41.705Z,30.77
2022-12-20T07:51:53.297Z,32.88
2022-12-20T07:54:05.135Z,25.90
2022-12-20T07:56:13.788Z,22.75
2022-12-20T07:58:21.641Z,21.80
2022-12-20T08:00:27.305Z,24.60
2022-12-20T08:02:38.483Z,22.73
2022-12-20T08:04:44.763Z,24.00
2022-12-20T08:06:55.831Z,23.55
2022-12-20T08:09:05.519Z,23.83
2022-12-20T08:11:13.498Z,24.10
2022-12-20T08:15:23.956Z,27.98
2022-12-20T08:17:29.233Z,27.15
2022-12-20T08:19:34.402Z,26.25
2022-12-20T08:21:39.879Z,26.55
2022-12-20T08:23:47.535Z,23.40
2022-12-20T08:25:52.632Z,20.25
2022-12-20T08:27:57.634Z,21.30
2022-12-20T08:30:02.665Z,22.30
2022-12-20T08:32:07.838Z,21.27
2022-12-20T08:34:14.316Z,22.15
2022-12-20T08:36:19.839Z,23.02
2022-12-20T08:38:24.821Z,21.85
2022-12-20T08:40:32.371Z,22.70
2022-12-20T08:42:37.379Z,22.88
2022-12-20T08:44:42.334Z,22.15
2022-12-20T08:46:47.551Z,21.92
2022-12-20T08:48:52.514Z,20.70
2022-12-20T08:50:59.469Z,21.52
2022-12-20T08:53:04.859Z,21.23
2022-12-20T08:55:13.072Z,21.25
2022-12-20T08:57:20.894Z,20.10
2022-12-20T08:59:26.710Z,20.83
2022-12-20T09:01:33.979Z,21.08
2022-12-20T09:03:40.563Z,20.15
2022-12-20T09:05:49.976Z,20.17
2022-12-20T09:07:54.958Z,19.60
2022-12-20T09:09:59.983Z,20.65
2022-12-20T09:12:05.061Z,21.05
2022-12-20T09:14:12.818Z,20.33
2022-12-20T09:16:21.115Z,20.85
2022-12-20T09:18:26.646Z,19.25
2022-12-20T09:20:31.783Z,19.17
2022-12-20T09:22:36.759Z,19.55
2022-12-20T09:24:42.112Z,18.40
2022-12-20T09:26:49.183Z,17.25
2022-12-20T09:28:56.211Z,18.10
2022-12-20T09:31:05.681Z,17.40
2022-12-20T09:33:10.844Z,16.98
2022-12-20T09:35:22.609Z,16.58
2022-12-20T09:37:29.844Z,17.60
2022-12-20T09:39:35.039Z,17.13
2022-12-20T09:41:43.216Z,18.05
2022-12-20T09:43:49.223Z,17.90
2022-12-20T09:45:58.894Z,18.30
2022-12-20T09:48:07.843Z,18.08
2022-12-20T09:50:20.316Z,17.75
2022-12-20T09:52:46.982Z,16.42
2022-12-20T09:55:10.563Z,16.83
2022-12-20T09:57:27.606Z,17.00
2022-12-20T09:59:38.395Z,15.27
2022-12-20T10:01:48.933Z,16.00
2022-12-20T10:03:59.159Z,16.17
2022-12-20T10:06:11.776Z,16.48
2022-12-20T10:08:38.484Z,16.63
2022-12-20T10:10:59.566Z,15.45
2022-12-20T10:13:17.272Z,16.25
2022-12-20T10:17:49.542Z,15.52
2022-12-20T10:20:25.142Z,15.70
2022-12-20T10:22:40.754Z,15.02
2022-12-20T10:25:01.509Z,14.68
2022-12-20T10:27:16.938Z,14.77
2022-12-20T10:29:23.803Z,15.90
2022-12-20T10:31:30.556Z,15.88
2022-12-20T10:33:35.947Z,15.27
2022-12-20T10:35:45.524Z,14.07
2022-12-20T10:38:10.436Z,14.45
2022-12-20T10:41:01.357Z,15.32
2022-12-20T10:42:57.875Z,15.18
2022-12-20T10:45:03.337Z,14.93
2022-12-20T10:47:37.558Z,14.70
2022-12-20T10:49:43.507Z,15.38
2022-12-20T10:51:58.950Z,14.75
2022-12-20T10:54:05.923Z,15.25
2022-12-20T10:56:23.522Z,15.47
2022-12-20T10:58:40.347Z,15.93
2022-12-20T11:00:45.829Z,15.07
2022-12-20T11:03:10.414Z,17.50
2022-12-20T11:05:27.102Z,14.90
2022-12-20T11:07:36.906Z,16.05
2022-12-20T11:09:42.113Z,15.38
2022-12-20T11:12:02.416Z,16.17
2022-12-20T11:14:18.151Z,14.98
2022-12-20T11:16:37.970Z,15.13
2022-12-20T11:18:54.963Z,14.95
2022-12-20T11:21:17.166Z,14.10
2022-12-20T11:23:38.131Z,14.35
2022-12-20T11:26:11.423Z,15.25
2022-12-20T11:28:45.700Z,15.35
2022-12-20T11:31:02.068Z,16.13
2022-12-20T11:33:41.086Z,19.27
2022-12-20T11:35:57.578Z,17.80
2022-12-20T11:38:26.158Z,19.17
2022-12-20T11:40:39.023Z,18.48
2022-12-20T11:43:03.404Z,18.05
2022-12-20T11:45:18.106Z,19.63
2022-12-20T11:48:06.146Z,19.65
2022-12-20T11:50:33.884Z,18.85
2022-12-20T11:52:44.136Z,18.00
2022-12-20T11:54:59.431Z,18.88
2022-12-20T11:57:16.616Z,18.67
2022-12-20T11:59:31.609Z,18.58
2022-12-20T12:01:44.536Z,17.08
2022-12-20T12:04:04.246Z,16.20
2022-12-20T12:06:14.720Z,15.70
2022-12-20T12:08:24.400Z,15.32
2022-12-20T12:10:34.095Z,14.85
2022-12-20T12:12:47.266Z,14.13
2022-12-20T12:15:01.544Z,13.90
2022-12-20T12:17:14.700Z,14.50
2022-12-20T12:19:20.134Z,15.13
2022-12-20T12:21:28.642Z,14.88
2022-12-20T12:23:42.434Z,15.48
2022-12-20T12:25:47.508Z,17.30
2022-12-20T12:27:55.516Z,15.52
2022-12-20T12:30:02.061Z,15.07
2022-12-20T12:32:13.300Z,16.70
2022-12-20T12:34:35.431Z,16.25
2022-12-20T12:37:08.001Z,16.25
2022-12-20T12:39:49.077Z,17.38
2022-12-20T12:43:02.292Z,16.20
2022-12-20T12:45:18.725Z,15.77
2022-12-20T12:47:31.215Z,16.65
2022-12-20T12:49:37.970Z,15.18
2022-12-20T12:51:52.352Z,16.40
2022-12-20T12:54:15.091Z,17.08
2022-12-20T12:56:44.385Z,15.63
2022-12-20T12:59:53.463Z,15.02
2022-12-20T13:02:54.626Z,16.60
2022-12-20T13:05:04.246Z,16.40
2022-12-20T13:07:43.690Z,15.90
2022-12-20T13:09:49.201Z,16.52
2022-12-20T13:12:00.398Z,15.85
2022-12-20T13:14:55.141Z,16.70
2022-12-20T13:17:51.263Z,15.85
2022-12-20T13:19:58.727Z,15.57
2022-12-20T13:22:23.720Z,16.23
2022-12-20T13:24:42.389Z,16.05
2022-12-20T13:26:56.354Z,15.38
2022-12-20T13:29:28.900Z,16.63
2022-12-20T13:31:36.213Z,15.60
2022-12-20T13:33:45.031Z,17.25
2022-12-20T13:36:05.808Z,15.65
2022-12-20T13:38:59.564Z,15.48
2022-12-20T13:41:12.193Z,16.30
2022-12-20T13:43:30.990Z,15.93
2022-12-20T13:45:41.685Z,16.05
2022-12-20T13:47:53.862Z,16.30
2022-12-20T13:50:02.994Z,16.58
2022-12-20T13:52:31.283Z,16.23
2022-12-20T13:54:36.686Z,15.75
2022-12-20T13:56:49.406Z,16.30
2022-12-20T13:58:54.575Z,15.95
2022-12-20T14:01:10.164Z,15.88
2022-12-20T14:03:25.480Z,15.80
2022-12-20T14:05:36.968Z,14.98
2022-12-20T14:07:42.476Z,15.25
2022-12-20T14:09:49.971Z,15.45
2022-12-20T14:11:55.061Z,15.05
2022-12-20T14:14:01.874Z,14.75
2022-12-20T14:16:18.148Z,14.80
2022-12-20T14:18:26.833Z,13.82
2022-12-20T14:24:46.899Z,13.73
2022-12-20T14:26:59.332Z,13.77
2022-12-20T14:29:06.632Z,15.05
2022-12-20T14:31:28.809Z,16.35
2022-12-20T14:33:39.942Z,17.15
2022-12-20T14:35:51.087Z,16.25
2022-12-20T14:37:59.656Z,18.13
2022-12-20T14:40:17.829Z,21.88
2022-12-20T14:42:26.533Z,19.77
2022-12-20T14:44:34.467Z,16.23
2022-12-20T14:49:17.827Z,14.95
2022-12-20T14:51:24.316Z,15.77
2022-12-20T14:53:30.349Z,15.70
2022-12-20T14:55:42.656Z,15.43
2022-12-20T14:57:52.027Z,14.05
2022-12-20T15:00:07.537Z,13.40
2022-12-20T15:02:44.786Z,13.00
2022-12-20T15:04:52.490Z,13.60
2022-12-20T15:06:57.952Z,14.05
2022-12-20T15:09:02.976Z,13.25
2022-12-20T15:11:23.035Z,13.80
2022-12-20T15:13:34.650Z,15.65
2022-12-20T15:15:40.324Z,14.95
2022-12-20T15:17:48.119Z,15.02
2022-12-20T15:19:54.222Z,16.02
2022-12-20T15:21:59.980Z,15.15
2022-12-20T15:24:12.493Z,15.55
2022-12-20T15:26:19.785Z,15.25
2022-12-20T15:28:27.736Z,15.68
2022-12-20T15:30:32.917Z,15.85
2022-12-20T15:32:53.279Z,14.75
2022-12-20T15:35:03.017Z,16.85
2022-12-20T15:37:11.363Z,16.02
2022-12-20T15:39:21.624Z,16.48
2022-12-20T15:41:30.255Z,16.50
2022-12-20T15:43:41.474Z,16.13
2022-12-20T15:45:49.792Z,16.23
2022-12-20T15:47:54.775Z,17.77
2022-12-20T15:50:03.257Z,17.80
2022-12-20T15:52:08.668Z,17.77
2022-12-20T15:54:27.287Z,17.27
2022-12-20T15:56:33.146Z,18.17
2022-12-20T15:58:38.274Z,17.30
2022-12-20T16:00:44.661Z,16.38
2022-12-20T16:02:52.331Z,16.52
2022-12-20T16:04:58.904Z,18.20
2022-12-20T16:07:12.319Z,16.30
2022-12-20T16:09:18.060Z,16.02
2022-12-20T16:11:28.033Z,16.52
2022-12-20T16:13:33.074Z,15.43
2022-12-20T16:15:38.186Z,15.50
2022-12-20T16:17:43.192Z,18.30
2022-12-20T16:19:48.876Z,17.20
2022-12-20T16:21:59.022Z,17.13
2022-12-20T16:24:07.231Z,17.88
2022-12-20T16:26:16.571Z,17.25
2022-12-20T16:28:22.063Z,17.73
2022-12-20T16:30:28.185Z,17.27
2022-12-20T16:32:33.519Z,18.08
2022-12-20T16:34:38.638Z,17.35
2022-12-20T16:36:44.944Z,16.60
2022-12-20T16:38:50.191Z,19.17
2022-12-20T16:40:57.739Z,18.33
2022-12-20T16:43:04.243Z,18.67
2022-12-20T16:45:16.314Z,16.70
2022-12-20T16:47:21.773Z,15.23
2022-12-20T16:49:26.732Z,15.50
2022-12-20T16:51:34.482Z,15.63
2022-12-20T16:54:09.949Z,16.70
2022-12-20T16:56:08.489Z,15.02
2022-12-20T16:58:13.459Z,16.83
2022-12-20T17:00:22.826Z,16.50
2022-12-20T17:02:31.824Z,17.80
2022-12-20T17:04:38.071Z,18.73
2022-12-20T17:06:43.496Z,17.67
2022-12-20T17:08:52.767Z,18.40
2022-12-20T17:10:57.720Z,19.15
2022-12-20T17:13:05.227Z,19.52
2022-12-20T17:15:23.088Z,20.50
2022-12-20T17:17:28.437Z,21.23
2022-12-20T17:19:33.449Z,22.23
2022-12-20T17:24:01.268Z,24.67
2022-12-20T17:26:06.555Z,25.25
2022-12-20T17:28:14.096Z,25.13
2022-12-20T17:32:27.975Z,23.00
2022-12-20T17:34:33.764Z,23.42
2022-12-20T17:36:39.125Z,22.60
2022-12-20T17:38:44.174Z,23.75
2022-12-20T17:40:49.193Z,25.20
2022-12-20T17:42:55.246Z,23.60
2022-12-20T17:45:03.511Z,24.08
2022-12-20T17:49:15.438Z,22.20
2022-12-20T17:51:23.875Z,21.80
2022-12-20T17:53:29.545Z,22.83
2022-12-20T17:55:34.922Z,20.52
2022-12-20T17:57:40.553Z,20.05
2022-12-20T17:59:46.983Z,19.95
2022-12-20T18:01:55.252Z,19.48
2022-12-20T18:04:05.068Z,17.83
2022-12-20T18:06:12.873Z,17.55
2022-12-20T18:08:21.194Z,18.45
2022-12-20T18:10:26.895Z,18.67
2022-12-20T18:12:37.199Z,18.15
2022-12-20T18:14:42.635Z,17.70
2022-12-20T18:16:47.961Z,17.20
2022-12-20T18:18:56.717Z,16.95
2022-12-20T18:21:06.109Z,18.33
2022-12-20T18:23:11.243Z,18.20
2022-12-20T18:25:18.604Z,17.95
2022-12-20T18:27:28.691Z,18.13
2022-12-20T18:29:35.791Z,19.00
2022-12-20T18:31:41.603Z,19.88
2022-12-20T18:33:49.083Z,19.42
2022-12-20T18:36:08.891Z,20.40
2022-12-20T18:38:13.863Z,18.88
2022-12-20T18:40:19.390Z,20.02
2022-12-20T18:42:24.596Z,21.05
2022-12-20T18:44:30.972Z,21.33
2022-12-20T18:46:36.632Z,22.27
2022-12-20T18:48:42.241Z,21.95
2022-12-20T18:50:48.282Z,20.42
2022-12-20T18:53:01.344Z,20.67
2022-12-20T18:55:07.898Z,22.17
2022-12-20T18:57:13.305Z,20.33
2022-12-20T18:59:18.704Z,23.05
2022-12-20T19:01:26.881Z,24.75
2022-12-20T19:03:32.384Z,25.13
2022-12-20T19:05:38.058Z,25.20
2022-12-20T19:07:43.723Z,25.77
2022-12-20T19:09:51.258Z,26.25
2022-12-20T19:11:57.776Z,25.65
2022-12-20T19:14:03.705Z,25.60
2022-12-20T19:16:13.106Z,26.75
2022-12-20T19:18:19.045Z,21.45
2022-12-20T19:20:24.732Z,19.55
2022-12-20T19:22:29.723Z,19.65
2022-12-20T19:24:34.729Z,18.77
2022-12-20T19:26:42.770Z,18.40
2022-12-20T19:28:48.088Z,18.08
2022-12-20T19:30:54.063Z,16.88
2022-12-20T19:32:59.294Z,16.33
2022-12-20T19:35:29.952Z,15.75
2022-12-20T19:37:36.973Z,16.42
2022-12-20T19:39:42.601Z,15.50
2022-12-20T19:42:19.305Z,15.13
2022-12-20T19:44:17.168Z,15.73
2022-12-20T19:46:28.261Z,14.93
2022-12-20T19:48:36.114Z,15.57
2022-12-20T19:50:43.167Z,14.55
2022-12-20T19:52:48.199Z,14.68
2022-12-20T19:54:53.180Z,14.82
2022-12-20T19:57:01.174Z,16.00
2022-12-20T19:59:06.411Z,15.40
2022-12-20T20:01:12.757Z,15.85
2022-12-20T20:03:18.252Z,15.88
2022-12-20T20:05:23.974Z,16.55
2022-12-20T20:07:29.070Z,16.48
2022-12-20T20:09:34.173Z,16.00
2022-12-20T20:11:41.423Z,15.40
2022-12-20T20:13:50.270Z,16.25
2022-12-20T20:15:57.237Z,19.50
2022-12-20T20:20:10.599Z,15.35
2022-12-20T20:22:22.524Z,15.65
2022-12-20T20:24:28.230Z,16.42
2022-12-20T20:26:34.408Z,16.13
2022-12-20T20:28:44.914Z,16.70
2022-12-20T20:30:54.476Z,15.75
2022-12-20T20:32:59.990Z,14.65
2022-12-20T20:35:05.352Z,16.58
2022-12-20T20:37:11.120Z,16.38
2022-12-20T20:39:16.253Z,15.38
2022-12-20T20:41:22.678Z,15.75
2022-12-20T20:43:30.134Z,15.43
2022-12-20T20:45:35.551Z,15.13
2022-12-20T20:47:44.528Z,15.10
2022-12-20T20:49:49.991Z,15.98
2022-12-20T20:51:55.460Z,15.60
2022-12-20T20:54:00.730Z,15.13
2022-12-20T20:56:07.329Z,15.13
2022-12-20T20:58:12.360Z,15.73
2022-12-20T21:00:19.291Z,16.17
2022-12-20T21:02:24.651Z,16.90
2022-12-20T21:04:32.722Z,16.17
2022-12-20T21:08:48.154Z,16.60
2022-12-20T21:10:53.847Z,16.90
2022-12-20T21:12:59.265Z,16.92
2022-12-20T21:15:24.315Z,17.17
2022-12-20T21:17:29.793Z,17.35
2022-12-20T21:19:37.255Z,18.17
2022-12-20T21:21:42.367Z,18.35
2022-12-20T21:23:48.737Z,18.30
2022-12-20T21:25:59.496Z,17.52
2022-12-20T21:28:04.702Z,18.27
2022-12-20T21:30:11.696Z,17.67
2022-12-20T21:32:16.900Z,18.45
2022-12-20T21:34:22.912Z,18.05
2022-12-20T21:36:30.917Z,18.10
2022-12-20T21:40:41.363Z,17.58
2022-12-20T21:42:46.503Z,17.35
2022-12-20T21:44:51.544Z,17.52
2022-12-20T21:46:56.423Z,17.90
2022-12-20T21:49:02.793Z,18.00
2022-12-20T21:51:11.575Z,18.45
2022-12-20T21:53:19.742Z,18.35
2022-12-20T21:55:25.062Z,19.23
2022-12-20T21:57:30.234Z,18.45
2022-12-20T21:59:35.105Z,19.52
2022-12-20T22:01:40.418Z,19.00
2022-12-20T22:03:46.328Z,18.90
2022-12-20T22:05:52.338Z,19.45
2022-12-20T22:07:57.379Z,18.83
2022-12-20T22:10:04.855Z,19.70
2022-12-20T22:12:09.713Z,18.98
2022-12-20T22:14:16.159Z,18.33
2022-12-20T22:16:25.946Z,19.38
2022-12-20T22:18:31.265Z,18.02
2022-12-20T22:20:37.213Z,18.77
2022-12-20T22:22:42.077Z,18.75
2022-12-20T22:24:47.038Z,18.98
2022-12-20T22:26:55.102Z,18.02
2022-12-20T22:29:02.783Z,19.20
2022-12-20T22:31:11.448Z,18.65
2022-12-20T22:33:16.319Z,18.52
2022-12-20T22:35:23.111Z,19.33
2022-12-20T22:37:28.803Z,18.15
2022-12-20T22:39:33.639Z,17.65
2022-12-20T22:41:41.590Z,18.30
2022-12-20T22:43:49.679Z,18.13
2022-12-20T22:45:59.973Z,19.13
2022-12-20T22:48:07.129Z,18.27
2022-12-20T22:50:13.716Z,18.25
2022-12-20T22:52:19.225Z,18.00
2022-12-20T22:54:24.903Z,18.73
2022-12-20T22:56:31.003Z,17.92
2022-12-20T22:58:37.793Z,18.33
2022-12-20T23:00:45.405Z,19.63
2022-12-20T23:02:51.870Z,19.90
2022-12-20T23:04:57.234Z,18.88
2022-12-20T23:07:02.132Z,19.13
2022-12-20T23:09:07.332Z,19.65
2022-12-20T23:11:32.314Z,20.02
2022-12-20T23:13:49.724Z,19.70
2022-12-20T23:15:57.214Z,18.73
2022-12-20T23:18:02.094Z,20.10
2022-12-20T23:20:21.422Z,18.55
2022-12-20T23:22:43.129Z,19.30
2022-12-20T23:24:49.630Z,20.33
2022-12-20T23:26:54.496Z,19.63
2022-12-20T23:28:59.625Z,20.60
2022-12-20T23:31:09.097Z,19.17
2022-12-20T23:33:14.004Z,18.65
2022-12-20T23:35:22.186Z,19.42
2022-12-20T23:37:27.091Z,20.08
2022-12-20T23:39:31.932Z,19.48
2022-12-20T23:41:37.005Z,20.38
2022-12-20T23:43:41.913Z,20.85
2022-12-20T23:45:46.935Z,20.33
2022-12-20T23:47:54.364Z,20.10
2022-12-20T23:49:59.263Z,20.70
2022-12-20T23:52:04.284Z,20.30
2022-12-20T23:54:09.298Z,21.20
2022-12-20T23:56:16.766Z,20.15
2022-12-20T23:58:21.969Z,19.95
